Photo de Laille
https://tgftp.nws.noaa.gov/data/observations/metar/stations/LFRN.TXT2021/12/07 08:30 LFRN 070830Z AUTO 16012KT 9999 FEW012 BKN021 OVC150 08/07 Q1006 TEMPO 4000 SHRA BECMG 17018G30KT BKN012
Rennes
couvert
Metar : 2021/12/07 08:30 LFRN 070830Z AUTO 16012KT 9999 FEW012 BKN021 OVC150 08/07 Q1006 TEMPO 4000 SHRA BECMG 17018G30KT BKN012
Couverture nuageuse : Few Clouds 1200 ft Mostly Cloudy 2100 ft Overcast 15000 ft
Pression de 29.71 inHg (1006 hPa)
Humidité : 93%
Température : 46°F (8°C)
Vent de SSE at 14 mph (22 km/h)
Visibilité : 6 miles (10 km)
Nantes
nuageux
Metar : 2021/12/07 08:30 LFRS 070830Z AUTO 16008KT 9999 FEW007 BKN013 09/08 Q1008 BECMG 18020G35KT 3000 RA OVC020
Couverture nuageuse : Few Clouds 700 ft Mostly Cloudy 1300 ft
Traduc : Partly cloudy 700 ft
Pression de 29.77 inHg (1008 hPa)
Humidité : 94%
Température : 48°F (9°C)
Point de rosée : 46°F (8°C)
Vent de SSE at 9 mph (15 km/h)
Visibilité : 6 miles (10 km)
Lannion
pluie légère, Orageux
Metar : 2021/12/07 08:30 LFRO 070830Z AUTO 17016KT 130V190 9999 -RA SCT017/// BKN032/// BKN052/// ///CB 10/08 Q1001
Couverture nuageuse : Partly Cloudy 1700 ft Mostly Cloudy 3200 ft Mostly Cloudy 5200 ft
Traduc : Partly cloudy 700 ft
Pression de 29.56 inHg (1001 hPa)
Humidité : 88%
Température : 50°F (10°C)
Point de rosée : 46°F (8°C)
Vent de S at 18 mph (30 km/h)
Visibilité : 6 miles (10 km)
Dinard
couvert
Metar : 2021/12/07 08:30 LFRD 070830Z AUTO 17016KT 9999 SCT008 BKN048 OVC130 07/06 Q1004 TEMPO 4000 SHRA BKN009 BECMG 17020G35KT
Couverture nuageuse : Partly Cloudy 800 ft Mostly Cloudy 4800 ft Overcast 13000 ft
Traduc : Partly cloudy 700 ft
Pression de 29.65 inHg (1004 hPa)
Humidité : 93%
Température : 45°F (7°C)
Point de rosée : 43°F (6°C)
Vent de S at 18 mph (30 km/h)
Visibilité : 6 miles (10 km)
Brest
Pluie, Brume, Orageux
Metar : 2021/12/07 08:30 LFRB 070830Z AUTO 18022KT 5000 RA BR BKN012/// OVC022/// ///CB 10/09 Q0998 TEMPO 18025G45KT 2000 TSRAGS BKN006 BKN015CB
Couverture nuageuse : Mostly Cloudy 1200 ft Overcast 2200 ft
Traduc : Partly cloudy 700 ft
Pression de 29.47 inHg (998 hPa)
Humidité : 94%
Température : 50°F (10°C)
Point de rosée : 48°F (9°C)
Vent de S at 25 mph (41 km/h)
Visibilité : 3 miles (5 km)
Quimper
Pluie, Brume, Orageux
Metar : 2021/12/07 08:30 LFRQ 070830Z AUTO 18013KT 150V230 4900 RA BR BKN012/// BKN024/// OVC039/// ///CB 11/10 Q1001 TEMPO 18025G45KT 2500 RA BKN005 OVC015
Couverture nuageuse : Mostly Cloudy 1200 ft Mostly Cloudy 2400 ft Overcast 3900 ft
Traduc : Partly cloudy 700 ft
Pression de 29.56 inHg (1001 hPa)
Humidité : 94%
Température : 52°F (11°C)
Point de rosée : 50°F (10°C)
Vent de S at 15 mph (24 km/h)
Visibilité : 3 miles (5 km)
St Nazaire
nuageux
Metar : 2021/12/07 08:30 LFRZ 070830Z AUTO 19016KT 9999 FEW009 BKN014 BKN040 11/09 Q1007 TEMPO BKN007 BECMG 16020G35KT 3000 -RA
Couverture nuageuse : Few Clouds 900 ft Mostly Cloudy 1400 ft Mostly Cloudy 4000 ft
Traduc : Partly cloudy 700 ft
Pression de 29.74 inHg (1007 hPa)
Humidité : 88%
Température : 52°F (11°C)
Point de rosée : 48°F (9°C)
Vent de S at 18 mph (30 km/h)
Visibilité : 6 miles (10 km)
St Brieuc
couvert
Metar : 2021/12/07 08:30 LFRT 070830Z AUTO 17011KT 120V200 9999 BKN010 OVC015 09/08 Q1002
Couverture nuageuse : Mostly Cloudy 1000 ft Overcast 1500 ft
Traduc : Partly cloudy 700 ft
Pression de 29.59 inHg (1002 hPa)
Humidité : 94%
Température : 48°F (9°C)
Point de rosée : 46°F (8°C)
Vent de S at 13 mph (20 km/h)
Visibilité : 6 miles (10 km)
Lorient
Orageux
Metar : 2021/12/07 08:30 LFRH 070830Z AUTO 18020KT 9999 BKN015/// BKN040/// BKN078/// ///TCU 11/10 Q1003 TEMPO 17025G40KT 1500 RA BKN003 OVC006
Couverture nuageuse : Mostly Cloudy 1500 ft Mostly Cloudy 4000 ft Mostly Cloudy 7800 ft
Traduc : Partly cloudy 700 ft
Pression de 29.62 inHg (1003 hPa)
Humidité : 94%
Température : 52°F (11°C)
Point de rosée : 50°F (10°C)
Vent de S at 23 mph (37 km/h)
Visibilité : 6 miles (10 km)
Vannes-Meucon
couvert
Metar : 2021/12/07 08:30 LFRV 070830Z AUTO 18014G25KT 160V220 9999 OVC007 10/09 Q1004
Couverture nuageuse : Overcast 700 ft
Traduc : Partly cloudy 700 ft
Pression de 29.65 inHg (1004 hPa)
Humidité : 94%
Température : 50°F (10°C)
Point de rosée : 48°F (9°C)
Vent de S at 16 mph (26 km/h), gusting to 29 mph (46 km/h)
Visibilité : 6 miles (10 km)

 


   Weather Underground PWS IBRETAGN39      Weather Underground PWS IBRETAGN39Retour Météo-Laillé adhérent de Météo-Bretagne et d'Infoclimat. Données mises à jour en temps réel via Météolink Climatologie réalisée sous Wswin et GraphWeather.

Affichage prévisions météo de WeatherUnderground via script PHP de Saratoga.

Copyright 2012-2021


compteur